sensor_id;sensor_type;location;lat;lon;timestamp;P1;durP1;ratioP1;P2;durP2;ratioP2
31724;SDS011;18306;40.960;14.836;2023-02-15T00:00:19;21.88;;;10.20;;
31724;SDS011;18306;40.960;14.836;2023-02-15T00:02:47;29.77;;;11.95;;
31724;SDS011;18306;40.960;14.836;2023-02-15T00:05:14;22.00;;;10.68;;
31724;SDS011;18306;40.960;14.836;2023-02-15T00:07:42;36.47;;;11.27;;
31724;SDS011;18306;40.960;14.836;2023-02-15T00:10:10;20.70;;;11.32;;
31724;SDS011;18306;40.960;14.836;2023-02-15T00:12:38;28.75;;;10.73;;
31724;SDS011;18306;40.960;14.836;2023-02-15T00:15:05;26.00;;;12.02;;
31724;SDS011;18306;40.960;14.836;2023-02-15T00:17:32;22.95;;;10.60;;
31724;SDS011;18306;40.960;14.836;2023-02-15T00:20:00;21.80;;;11.20;;
31724;SDS011;18306;40.960;14.836;2023-02-15T00:22:27;24.42;;;13.13;;
31724;SDS011;18306;40.960;14.836;2023-02-15T00:24:54;18.52;;;10.93;;
31724;SDS011;18306;40.960;14.836;2023-02-15T00:27:23;20.77;;;12.25;;
31724;SDS011;18306;40.960;14.836;2023-02-15T00:29:50;26.58;;;11.70;;
31724;SDS011;18306;40.960;14.836;2023-02-15T00:32:17;29.55;;;13.25;;
31724;SDS011;18306;40.960;14.836;2023-02-15T00:34:44;27.50;;;11.57;;
31724;SDS011;18306;40.960;14.836;2023-02-15T00:37:11;23.63;;;12.60;;
31724;SDS011;18306;40.960;14.836;2023-02-15T00:39:38;22.73;;;11.77;;
31724;SDS011;18306;40.960;14.836;2023-02-15T00:42:05;21.50;;;12.50;;
31724;SDS011;18306;40.960;14.836;2023-02-15T00:57:07;24.10;;;11.90;;
31724;SDS011;18306;40.960;14.836;2023-02-15T00:59:38;18.45;;;10.57;;
31724;SDS011;18306;40.960;14.836;2023-02-15T01:02:05;21.15;;;11.38;;
31724;SDS011;18306;40.960;14.836;2023-02-15T01:04:33;17.30;;;11.13;;
31724;SDS011;18306;40.960;14.836;2023-02-15T01:07:00;23.08;;;10.15;;
31724;SDS011;18306;40.960;14.836;2023-02-15T01:09:33;25.73;;;11.65;;
31724;SDS011;18306;40.960;14.836;2023-02-15T01:12:00;16.70;;;9.25;;
31724;SDS011;18306;40.960;14.836;2023-02-15T01:14:27;23.48;;;11.48;;
31724;SDS011;18306;40.960;14.836;2023-02-15T01:16:54;17.23;;;11.07;;
31724;SDS011;18306;40.960;14.836;2023-02-15T01:19:21;23.83;;;11.15;;
31724;SDS011;18306;40.960;14.836;2023-02-15T01:21:48;19.42;;;9.68;;
31724;SDS011;18306;40.960;14.836;2023-02-15T01:24:15;27.40;;;11.35;;
31724;SDS011;18306;40.960;14.836;2023-02-15T01:26:43;23.95;;;11.13;;
31724;SDS011;18306;40.960;14.836;2023-02-15T01:29:10;22.50;;;11.50;;
31724;SDS011;18306;40.960;14.836;2023-02-15T01:31:37;27.55;;;11.90;;
31724;SDS011;18306;40.960;14.836;2023-02-15T01:34:06;20.42;;;10.05;;
31724;SDS011;18306;40.960;14.836;2023-02-15T01:36:33;18.08;;;10.52;;
31724;SDS011;18306;40.960;14.836;2023-02-15T01:39:01;30.58;;;10.80;;
31724;SDS011;18306;40.960;14.836;2023-02-15T01:41:31;24.15;;;11.93;;
31724;SDS011;18306;40.960;14.836;2023-02-15T01:44:00;36.88;;;11.30;;
31724;SDS011;18306;40.960;14.836;2023-02-15T01:46:40;19.48;;;9.85;;
31724;SDS011;18306;40.960;14.836;2023-02-15T01:49:16;18.90;;;10.65;;
31724;SDS011;18306;40.960;14.836;2023-02-15T01:51:47;24.08;;;9.98;;
31724;SDS011;18306;40.960;14.836;2023-02-15T01:54:25;23.38;;;9.82;;
31724;SDS011;18306;40.960;14.836;2023-02-15T01:57:00;18.27;;;9.13;;
31724;SDS011;18306;40.960;14.836;2023-02-15T01:59:31;22.88;;;10.20;;
31724;SDS011;18306;40.960;14.836;2023-02-15T02:02:01;30.92;;;9.93;;
31724;SDS011;18306;40.960;14.836;2023-02-15T02:04:38;22.33;;;11.10;;
31724;SDS011;18306;40.960;14.836;2023-02-15T02:07:22;23.67;;;11.32;;
31724;SDS011;18306;40.960;14.836;2023-02-15T02:09:53;26.48;;;12.18;;
31724;SDS011;18306;40.960;14.836;2023-02-15T02:12:23;21.63;;;12.02;;
31724;SDS011;18306;40.960;14.836;2023-02-15T02:14:51;23.33;;;10.82;;
31724;SDS011;18306;40.960;14.836;2023-02-15T02:17:44;16.73;;;10.15;;
31724;SDS011;18306;40.960;14.836;2023-02-15T02:37:23;14.98;;;9.93;;
31724;SDS011;18306;40.960;14.836;2023-02-15T02:40:06;25.05;;;10.20;;
31724;SDS011;18306;40.960;14.836;2023-02-15T02:42:51;16.23;;;10.38;;
31724;SDS011;18306;40.960;14.836;2023-02-15T02:45:25;16.40;;;10.02;;
31724;SDS011;18306;40.960;14.836;2023-02-15T02:48:03;38.65;;;10.68;;
31724;SDS011;18306;40.960;14.836;2023-02-15T02:50:40;28.83;;;10.10;;
31724;SDS011;18306;40.960;14.836;2023-02-15T02:53:08;26.00;;;11.63;;
31724;SDS011;18306;40.960;14.836;2023-02-15T02:55:45;16.58;;;9.52;;
31724;SDS011;18306;40.960;14.836;2023-02-15T03:03:42;27.88;;;10.07;;
31724;SDS011;18306;40.960;14.836;2023-02-15T03:06:16;20.42;;;10.35;;
31724;SDS011;18306;40.960;14.836;2023-02-15T03:08:56;14.80;;;9.65;;
31724;SDS011;18306;40.960;14.836;2023-02-15T03:11:29;20.77;;;10.00;;
31724;SDS011;18306;40.960;14.836;2023-02-15T03:13:57;21.15;;;9.80;;
31724;SDS011;18306;40.960;14.836;2023-02-15T03:16:24;19.77;;;10.90;;
31724;SDS011;18306;40.960;14.836;2023-02-15T03:18:55;23.92;;;11.15;;
31724;SDS011;18306;40.960;14.836;2023-02-15T03:21:31;25.77;;;10.88;;
31724;SDS011;18306;40.960;14.836;2023-02-15T03:24:34;19.27;;;11.02;;
31724;SDS011;18306;40.960;14.836;2023-02-15T03:27:08;18.67;;;10.80;;
31724;SDS011;18306;40.960;14.836;2023-02-15T03:29:46;20.45;;;11.95;;
31724;SDS011;18306;40.960;14.836;2023-02-15T03:32:18;26.92;;;11.77;;
31724;SDS011;18306;40.960;14.836;2023-02-15T03:34:45;25.17;;;11.57;;
31724;SDS011;18306;40.960;14.836;2023-02-15T03:37:35;29.58;;;11.90;;
31724;SDS011;18306;40.960;14.836;2023-02-15T03:40:07;31.67;;;12.60;;
31724;SDS011;18306;40.960;14.836;2023-02-15T03:43:03;30.55;;;10.13;;
31724;SDS011;18306;40.960;14.836;2023-02-15T03:48:34;24.65;;;11.23;;
31724;SDS011;18306;40.960;14.836;2023-02-15T03:51:09;20.75;;;12.20;;
31724;SDS011;18306;40.960;14.836;2023-02-15T03:54:00;26.55;;;13.07;;
31724;SDS011;18306;40.960;14.836;2023-02-15T03:56:35;26.85;;;13.23;;
31724;SDS011;18306;40.960;14.836;2023-02-15T03:59:04;20.38;;;9.95;;
31724;SDS011;18306;40.960;14.836;2023-02-15T04:01:57;29.88;;;12.85;;
31724;SDS011;18306;40.960;14.836;2023-02-15T04:04:37;21.00;;;11.02;;
31724;SDS011;18306;40.960;14.836;2023-02-15T04:07:08;24.02;;;10.95;;
31724;SDS011;18306;40.960;14.836;2023-02-15T04:09:35;23.45;;;10.50;;
31724;SDS011;18306;40.960;14.836;2023-02-15T04:12:20;20.55;;;10.35;;
31724;SDS011;18306;40.960;14.836;2023-02-15T04:14:48;21.50;;;10.43;;
31724;SDS011;18306;40.960;14.836;2023-02-15T04:17:33;26.98;;;11.82;;
31724;SDS011;18306;40.960;14.836;2023-02-15T04:20:02;25.23;;;11.07;;
31724;SDS011;18306;40.960;14.836;2023-02-15T04:22:48;28.95;;;11.75;;
31724;SDS011;18306;40.960;14.836;2023-02-15T04:25:34;19.63;;;11.48;;
31724;SDS011;18306;40.960;14.836;2023-02-15T04:28:01;25.67;;;12.25;;
31724;SDS011;18306;40.960;14.836;2023-02-15T04:30:28;31.15;;;11.55;;
31724;SDS011;18306;40.960;14.836;2023-02-15T04:32:55;29.67;;;10.85;;
31724;SDS011;18306;40.960;14.836;2023-02-15T04:35:23;21.85;;;11.32;;
31724;SDS011;18306;40.960;14.836;2023-02-15T04:37:50;16.50;;;10.02;;
31724;SDS011;18306;40.960;14.836;2023-02-15T04:40:17;22.98;;;12.82;;
31724;SDS011;18306;40.960;14.836;2023-02-15T04:42:46;45.65;;;14.55;;
31724;SDS011;18306;40.960;14.836;2023-02-15T04:45:15;34.65;;;12.70;;
31724;SDS011;18306;40.960;14.836;2023-02-15T04:47:43;17.35;;;10.88;;
31724;SDS011;18306;40.960;14.836;2023-02-15T04:50:15;22.13;;;12.52;;
31724;SDS011;18306;40.960;14.836;2023-02-15T04:52:54;24.27;;;12.40;;
31724;SDS011;18306;40.960;14.836;2023-02-15T04:55:35;17.63;;;11.38;;
31724;SDS011;18306;40.960;14.836;2023-02-15T04:58:25;24.15;;;12.00;;
31724;SDS011;18306;40.960;14.836;2023-02-15T05:01:00;18.00;;;11.00;;
31724;SDS011;18306;40.960;14.836;2023-02-15T05:03:34;20.55;;;11.20;;
31724;SDS011;18306;40.960;14.836;2023-02-15T05:06:10;18.85;;;12.23;;
31724;SDS011;18306;40.960;14.836;2023-02-15T05:08:44;19.23;;;11.43;;
31724;SDS011;18306;40.960;14.836;2023-02-15T05:11:11;21.75;;;11.70;;
31724;SDS011;18306;40.960;14.836;2023-02-15T05:13:38;20.65;;;10.70;;
31724;SDS011;18306;40.960;14.836;2023-02-15T05:16:05;21.25;;;11.50;;
31724;SDS011;18306;40.960;14.836;2023-02-15T05:18:32;19.67;;;11.20;;
31724;SDS011;18306;40.960;14.836;2023-02-15T05:20:59;15.80;;;9.85;;
31724;SDS011;18306;40.960;14.836;2023-02-15T05:23:26;19.67;;;10.85;;
31724;SDS011;18306;40.960;14.836;2023-02-15T05:25:53;16.98;;;9.77;;
31724;SDS011;18306;40.960;14.836;2023-02-15T05:37:34;22.58;;;10.57;;
31724;SDS011;18306;40.960;14.836;2023-02-15T05:40:01;18.00;;;11.07;;
31724;SDS011;18306;40.960;14.836;2023-02-15T05:42:28;26.00;;;11.73;;
31724;SDS011;18306;40.960;14.836;2023-02-15T05:44:55;21.30;;;12.65;;
31724;SDS011;18306;40.960;14.836;2023-02-15T05:47:22;26.90;;;12.23;;
31724;SDS011;18306;40.960;14.836;2023-02-15T05:49:49;22.77;;;10.90;;
31724;SDS011;18306;40.960;14.836;2023-02-15T05:52:16;18.08;;;11.98;;
31724;SDS011;18306;40.960;14.836;2023-02-15T05:54:43;24.83;;;11.27;;
31724;SDS011;18306;40.960;14.836;2023-02-15T05:57:10;23.05;;;11.15;;
31724;SDS011;18306;40.960;14.836;2023-02-15T05:59:37;19.27;;;10.90;;
31724;SDS011;18306;40.960;14.836;2023-02-15T06:02:04;23.35;;;10.50;;
31724;SDS011;18306;40.960;14.836;2023-02-15T06:04:32;28.95;;;13.32;;
31724;SDS011;18306;40.960;14.836;2023-02-15T06:06:59;32.33;;;12.27;;
31724;SDS011;18306;40.960;14.836;2023-02-15T06:09:27;25.85;;;13.45;;
31724;SDS011;18306;40.960;14.836;2023-02-15T06:11:54;22.20;;;11.98;;
31724;SDS011;18306;40.960;14.836;2023-02-15T06:14:21;19.73;;;10.55;;
31724;SDS011;18306;40.960;14.836;2023-02-15T06:16:49;19.35;;;11.73;;
31724;SDS011;18306;40.960;14.836;2023-02-15T06:19:16;25.23;;;12.68;;
31724;SDS011;18306;40.960;14.836;2023-02-15T06:21:43;25.88;;;13.02;;
31724;SDS011;18306;40.960;14.836;2023-02-15T06:24:10;19.27;;;11.68;;
31724;SDS011;18306;40.960;14.836;2023-02-15T06:26:42;24.27;;;12.68;;
31724;SDS011;18306;40.960;14.836;2023-02-15T06:29:09;24.08;;;11.82;;
31724;SDS011;18306;40.960;14.836;2023-02-15T06:45:40;23.42;;;12.48;;
31724;SDS011;18306;40.960;14.836;2023-02-15T06:48:07;23.55;;;13.00;;
31724;SDS011;18306;40.960;14.836;2023-02-15T06:50:35;23.85;;;13.63;;
31724;SDS011;18306;40.960;14.836;2023-02-15T06:53:03;31.27;;;14.52;;
31724;SDS011;18306;40.960;14.836;2023-02-15T06:55:31;25.63;;;15.52;;
31724;SDS011;18306;40.960;14.836;2023-02-15T06:58:00;27.17;;;13.25;;
31724;SDS011;18306;40.960;14.836;2023-02-15T07:00:41;30.85;;;14.30;;
31724;SDS011;18306;40.960;14.836;2023-02-15T07:03:08;37.17;;;13.93;;
31724;SDS011;18306;40.960;14.836;2023-02-15T07:05:36;25.75;;;14.27;;
31724;SDS011;18306;40.960;14.836;2023-02-15T07:08:03;23.45;;;13.57;;
31724;SDS011;18306;40.960;14.836;2023-02-15T07:10:33;36.90;;;14.68;;
31724;SDS011;18306;40.960;14.836;2023-02-15T07:13:00;32.17;;;16.50;;
31724;SDS011;18306;40.960;14.836;2023-02-15T07:15:27;44.90;;;17.92;;
31724;SDS011;18306;40.960;14.836;2023-02-15T07:17:54;35.05;;;18.20;;
31724;SDS011;18306;40.960;14.836;2023-02-15T07:20:23;30.65;;;14.98;;
31724;SDS011;18306;40.960;14.836;2023-02-15T07:22:54;33.67;;;15.35;;
31724;SDS011;18306;40.960;14.836;2023-02-15T07:25:22;28.50;;;13.27;;
31724;SDS011;18306;40.960;14.836;2023-02-15T07:27:56;30.05;;;16.27;;
31724;SDS011;18306;40.960;14.836;2023-02-15T07:30:24;29.42;;;15.00;;
31724;SDS011;18306;40.960;14.836;2023-02-15T07:32:54;21.70;;;14.20;;
31724;SDS011;18306;40.960;14.836;2023-02-15T07:35:50;28.30;;;13.40;;
31724;SDS011;18306;40.960;14.836;2023-02-15T07:38:20;29.95;;;14.60;;
31724;SDS011;18306;40.960;14.836;2023-02-15T07:40:48;56.92;;;27.08;;
31724;SDS011;18306;40.960;14.836;2023-02-15T07:43:15;37.92;;;17.35;;
31724;SDS011;18306;40.960;14.836;2023-02-15T07:45:43;29.10;;;15.43;;
31724;SDS011;18306;40.960;14.836;2023-02-15T07:48:10;40.08;;;15.82;;
31724;SDS011;18306;40.960;14.836;2023-02-15T07:50:37;32.95;;;15.85;;
31724;SDS011;18306;40.960;14.836;2023-02-15T07:53:06;40.80;;;16.38;;
31724;SDS011;18306;40.960;14.836;2023-02-15T08:52:47;32.83;;;17.15;;
